createdAt,value
2023-03-29T00:02:02.625Z,14.06
2023-03-29T00:04:29.557Z,14.11
2023-03-29T00:06:56.367Z,14.04
2023-03-29T00:09:23.372Z,14.00
2023-03-29T00:11:50.078Z,13.89
2023-03-29T00:14:16.762Z,14.05
2023-03-29T00:16:44.992Z,13.69
2023-03-29T00:19:11.773Z,13.62
2023-03-29T00:21:38.438Z,13.75
2023-03-29T00:24:05.196Z,13.86
2023-03-29T00:26:31.788Z,13.85
2023-03-29T00:28:58.300Z,13.90
2023-03-29T00:31:25.083Z,13.82
2023-03-29T00:33:51.776Z,13.52
2023-03-29T00:36:18.302Z,14.03
2023-03-29T00:38:44.985Z,13.85
2023-03-29T00:41:12.056Z,13.70
2023-03-29T00:43:56.229Z,13.79
2023-03-29T00:46:24.254Z,13.64
2023-03-29T00:48:54.034Z,13.66
2023-03-29T00:51:22.711Z,13.66
2023-03-29T00:53:53.989Z,13.44
2023-03-29T00:56:27.724Z,13.60
2023-03-29T00:59:05.496Z,13.73
2023-03-29T01:04:18.294Z,13.63
2023-03-29T01:06:55.493Z,13.88
2023-03-29T01:09:24.684Z,13.62
2023-03-29T01:11:55.728Z,13.75
2023-03-29T01:14:42.577Z,13.82
2023-03-29T01:17:09.267Z,13.53
2023-03-29T01:19:43.340Z,13.53
2023-03-29T01:22:28.807Z,13.60
2023-03-29T01:25:17.535Z,13.86
2023-03-29T01:28:02.593Z,13.91
2023-03-29T01:30:40.525Z,13.68
2023-03-29T01:33:15.135Z,13.59
2023-03-29T01:35:46.049Z,13.76
2023-03-29T01:38:20.670Z,13.72
2023-03-29T01:40:47.456Z,14.09
2023-03-29T01:43:36.212Z,13.60
2023-03-29T01:46:12.104Z,13.86
2023-03-29T01:48:48.206Z,13.57
2023-03-29T01:51:14.867Z,13.56
2023-03-29T01:53:51.302Z,13.58
2023-03-29T01:56:21.794Z,13.82
2023-03-29T01:58:53.015Z,13.60
2023-03-29T02:01:26.236Z,13.90
2023-03-29T02:03:57.639Z,13.46
2023-03-29T02:06:27.876Z,13.45
2023-03-29T02:08:55.833Z,13.52
2023-03-29T02:11:24.352Z,13.66
2023-03-29T02:13:51.264Z,13.81
2023-03-29T02:16:18.560Z,13.68
2023-03-29T02:18:48.011Z,13.39
2023-03-29T02:21:25.956Z,13.29
2023-03-29T02:23:55.411Z,13.35
2023-03-29T02:26:22.571Z,13.50
2023-03-29T02:28:49.515Z,13.36
2023-03-29T02:31:24.941Z,13.02
2023-03-29T02:34:02.348Z,12.94
2023-03-29T02:36:46.765Z,13.41
2023-03-29T02:39:16.150Z,13.31
2023-03-29T02:41:47.142Z,13.53
2023-03-29T02:44:15.058Z,13.56
2023-03-29T02:46:44.054Z,13.53
2023-03-29T02:49:11.610Z,13.30
2023-03-29T02:51:38.868Z,13.78
2023-03-29T02:54:26.210Z,13.42
2023-03-29T02:57:00.391Z,13.11
2023-03-29T02:59:29.917Z,12.96
2023-03-29T03:01:56.799Z,13.14
2023-03-29T03:04:23.636Z,13.47
2023-03-29T03:06:50.453Z,13.89
2023-03-29T03:09:18.725Z,13.66
2023-03-29T03:11:45.307Z,13.51
2023-03-29T03:14:12.575Z,13.47
2023-03-29T03:16:39.118Z,13.36
2023-03-29T03:19:06.117Z,13.21
2023-03-29T03:21:34.269Z,13.14
2023-03-29T03:24:00.952Z,13.14
2023-03-29T03:26:30.301Z,13.68
2023-03-29T03:28:57.776Z,13.43
2023-03-29T03:31:24.983Z,13.22
2023-03-29T03:33:52.900Z,13.26
2023-03-29T03:36:19.924Z,13.20
2023-03-29T03:38:46.525Z,13.35
2023-03-29T03:41:13.180Z,13.21
2023-03-29T03:43:42.559Z,13.22
2023-03-29T03:46:09.365Z,13.03
2023-03-29T03:48:37.181Z,13.07
2023-03-29T03:51:04.911Z,12.84
2023-03-29T03:53:32.291Z,13.69
2023-03-29T03:55:58.877Z,13.45
2023-03-29T03:58:26.094Z,13.46
2023-03-29T04:00:52.717Z,13.43
2023-03-29T04:03:19.495Z,13.18
2023-03-29T04:05:47.473Z,13.11
2023-03-29T04:08:14.914Z,13.05
2023-03-29T04:10:41.801Z,12.81
2023-03-29T04:13:08.435Z,12.80
2023-03-29T04:15:39.082Z,12.92
2023-03-29T04:18:07.497Z,12.82
2023-03-29T04:20:34.765Z,12.93
2023-03-29T04:23:01.965Z,12.80
2023-03-29T04:25:28.944Z,12.73
2023-03-29T04:27:56.177Z,12.75
2023-03-29T04:30:22.983Z,12.84
2023-03-29T04:32:49.658Z,12.82
2023-03-29T04:35:16.735Z,12.89
2023-03-29T04:37:43.667Z,13.19
2023-03-29T04:40:19.479Z,13.30
2023-03-29T04:42:47.303Z,13.35
2023-03-29T04:45:18.022Z,13.26
2023-03-29T04:47:45.888Z,12.93
2023-03-29T04:50:13.924Z,12.80
2023-03-29T04:52:41.017Z,12.87
2023-03-29T04:55:08.289Z,12.90
2023-03-29T04:57:34.942Z,13.11
2023-03-29T05:00:01.479Z,13.06
2023-03-29T05:02:31.103Z,13.19
2023-03-29T05:04:58.081Z,13.02
2023-03-29T05:07:24.614Z,13.08
2023-03-29T05:09:51.356Z,12.90
2023-03-29T05:12:18.035Z,13.11
2023-03-29T05:14:44.540Z,12.88
2023-03-29T05:17:11.203Z,13.45
2023-03-29T05:19:38.409Z,13.57
2023-03-29T05:22:05.058Z,13.57
2023-03-29T05:24:31.962Z,13.37
2023-03-29T05:26:58.551Z,13.26
2023-03-29T05:29:25.244Z,13.50
2023-03-29T05:31:52.695Z,13.30
2023-03-29T05:34:20.061Z,13.32
2023-03-29T05:36:46.715Z,13.13
2023-03-29T05:39:13.718Z,13.11
2023-03-29T05:41:41.654Z,13.05
2023-03-29T05:44:08.544Z,13.14
2023-03-29T05:46:35.771Z,13.26
2023-03-29T05:49:02.580Z,13.07
2023-03-29T05:51:29.153Z,13.36
2023-03-29T05:53:56.057Z,13.38
2023-03-29T05:56:22.870Z,13.27
2023-03-29T05:58:49.552Z,13.04
2023-03-29T06:01:18.115Z,13.10
2023-03-29T06:03:46.242Z,13.22
2023-03-29T06:06:16.573Z,13.43
2023-03-29T06:08:44.339Z,13.15
2023-03-29T06:11:13.347Z,13.18
2023-03-29T06:13:42.202Z,13.07
2023-03-29T06:16:10.497Z,13.13
2023-03-29T06:18:40.206Z,13.84
2023-03-29T06:21:09.276Z,13.65
2023-03-29T06:23:36.700Z,13.48
2023-03-29T06:26:03.814Z,13.54
2023-03-29T06:28:30.670Z,13.47
2023-03-29T06:31:03.275Z,13.50
2023-03-29T06:33:32.342Z,13.45
2023-03-29T06:35:59.084Z,13.44
2023-03-29T06:38:28.728Z,13.69
2023-03-29T06:41:06.802Z,14.09
2023-03-29T06:43:34.864Z,13.91
2023-03-29T06:46:02.066Z,13.87
2023-03-29T06:48:29.365Z,13.79
2023-03-29T06:50:56.514Z,14.00
2023-03-29T06:53:23.189Z,13.75
2023-03-29T06:55:51.925Z,13.80
2023-03-29T06:58:18.799Z,13.90
2023-03-29T07:00:46.170Z,14.02
2023-03-29T07:03:20.014Z,14.16
2023-03-29T07:05:47.485Z,14.11
2023-03-29T07:08:16.264Z,14.33
2023-03-29T07:10:47.632Z,14.45
2023-03-29T07:13:14.603Z,14.63
2023-03-29T07:15:42.087Z,14.68
2023-03-29T07:18:10.458Z,14.84
2023-03-29T07:20:38.987Z,15.04
2023-03-29T07:23:07.810Z,14.95
2023-03-29T07:25:34.518Z,14.97
2023-03-29T07:28:02.111Z,14.74
2023-03-29T07:30:32.371Z,14.65
2023-03-29T07:32:59.781Z,14.63
2023-03-29T07:35:30.952Z,14.78
2023-03-29T07:37:58.467Z,14.82
2023-03-29T07:40:26.538Z,14.89
2023-03-29T07:42:55.037Z,15.02
2023-03-29T07:45:26.644Z,15.23
2023-03-29T07:47:57.406Z,15.29
2023-03-29T07:50:24.386Z,15.16
2023-03-29T07:52:51.115Z,15.21
2023-03-29T07:55:17.926Z,15.09
2023-03-29T07:57:44.562Z,15.12
2023-03-29T08:00:16.257Z,15.20
2023-03-29T08:02:45.119Z,15.67
2023-03-29T08:05:13.860Z,16.08
2023-03-29T08:07:43.112Z,15.72
2023-03-29T08:10:13.755Z,15.49
2023-03-29T08:12:41.174Z,15.49
2023-03-29T08:15:08.696Z,15.35
2023-03-29T08:17:36.350Z,15.45
2023-03-29T08:20:05.953Z,15.49
2023-03-29T08:22:33.892Z,15.56
2023-03-29T08:25:00.668Z,15.55
2023-03-29T08:27:27.268Z,16.08
2023-03-29T08:29:53.756Z,15.89
2023-03-29T08:32:20.529Z,15.54
2023-03-29T08:34:47.548Z,15.39
2023-03-29T08:37:14.937Z,15.51
2023-03-29T08:39:41.741Z,15.08
2023-03-29T08:42:31.892Z,15.27
2023-03-29T08:45:40.891Z,15.45
2023-03-29T08:48:25.669Z,15.31
2023-03-29T08:50:56.608Z,15.88
2023-03-29T08:53:36.506Z,15.71
2023-03-29T08:56:09.180Z,15.64
2023-03-29T08:58:38.071Z,15.73
2023-03-29T09:01:08.642Z,15.87
2023-03-29T09:03:41.077Z,16.21
2023-03-29T09:06:10.181Z,16.11
2023-03-29T09:08:43.555Z,16.25
2023-03-29T09:11:12.726Z,16.29
2023-03-29T09:13:53.735Z,16.19
2023-03-29T09:16:38.705Z,16.38
2023-03-29T09:19:32.243Z,16.86
2023-03-29T09:22:08.604Z,17.46
2023-03-29T09:25:16.826Z,17.19
2023-03-29T09:27:56.248Z,17.52
2023-03-29T09:30:29.101Z,17.40
2023-03-29T09:33:21.863Z,17.37
2023-03-29T09:36:02.959Z,17.61
2023-03-29T09:38:31.348Z,17.86
2023-03-29T09:41:04.428Z,17.81
2023-03-29T09:43:42.821Z,18.10
2023-03-29T09:46:18.070Z,17.91
2023-03-29T09:48:47.062Z,17.71
2023-03-29T09:51:14.523Z,17.55
2023-03-29T09:53:41.219Z,17.73
2023-03-29T09:56:08.718Z,17.73
2023-03-29T09:58:36.255Z,17.63
2023-03-29T10:01:08.820Z,17.84
2023-03-29T10:03:37.075Z,18.20
2023-03-29T10:06:06.442Z,18.17
2023-03-29T10:08:40.790Z,18.21
2023-03-29T10:11:13.591Z,18.24
2023-03-29T10:13:54.867Z,18.32
2023-03-29T10:16:29.465Z,18.19
2023-03-29T10:18:56.554Z,18.18
2023-03-29T10:21:23.811Z,18.21
2023-03-29T10:23:58.324Z,18.26
2023-03-29T10:26:31.791Z,18.30
2023-03-29T10:29:01.724Z,17.94
2023-03-29T10:31:33.070Z,17.88
2023-03-29T10:34:06.403Z,17.87
2023-03-29T10:36:33.183Z,18.06
2023-03-29T10:39:05.601Z,18.26
2023-03-29T10:41:34.538Z,18.08
2023-03-29T10:44:01.725Z,18.34
2023-03-29T10:46:40.297Z,18.53
2023-03-29T10:49:19.105Z,18.28
2023-03-29T10:51:47.072Z,18.26
2023-03-29T10:54:17.271Z,18.53
2023-03-29T10:56:52.337Z,18.71
2023-03-29T10:59:28.224Z,18.76
2023-03-29T11:02:15.180Z,18.75
2023-03-29T11:05:03.546Z,18.32
2023-03-29T11:07:41.558Z,18.10
2023-03-29T11:10:33.909Z,18.02
2023-03-29T11:13:38.230Z,18.32
2023-03-29T11:16:23.942Z,18.48
2023-03-29T11:18:56.915Z,18.64
2023-03-29T11:21:29.425Z,18.92
2023-03-29T11:24:33.951Z,19.08
2023-03-29T11:27:17.348Z,19.31
2023-03-29T11:29:49.854Z,19.29
2023-03-29T11:32:29.278Z,19.39
2023-03-29T11:35:12.399Z,19.44
2023-03-29T11:37:50.958Z,19.32
2023-03-29T11:40:51.643Z,19.64
2023-03-29T11:43:24.482Z,19.63
2023-03-29T11:46:00.139Z,19.40
2023-03-29T11:48:32.414Z,19.32
2023-03-29T11:51:14.322Z,19.34
2023-03-29T11:53:51.310Z,19.93
2023-03-29T11:56:29.440Z,20.35
2023-03-29T11:59:03.069Z,20.20
2023-03-29T12:01:42.517Z,20.23
2023-03-29T12:04:23.371Z,20.16
2023-03-29T12:07:14.544Z,20.56
2023-03-29T12:10:00.153Z,20.82
2023-03-29T12:12:30.373Z,21.04
2023-03-29T12:15:15.595Z,21.05
2023-03-29T12:17:46.996Z,20.93
2023-03-29T12:20:23.349Z,21.25
2023-03-29T12:22:51.169Z,21.21
2023-03-29T12:25:23.681Z,21.05
2023-03-29T12:28:04.956Z,21.11
2023-03-29T12:31:11.974Z,20.91
2023-03-29T12:33:57.710Z,20.72
2023-03-29T12:36:45.301Z,21.29
2023-03-29T12:39:16.129Z,21.32
2023-03-29T12:41:45.654Z,21.40
2023-03-29T12:44:15.183Z,21.31
2023-03-29T12:46:42.229Z,21.22
2023-03-29T12:49:26.901Z,21.48
2023-03-29T12:51:57.292Z,22.10
2023-03-29T12:54:28.378Z,21.99
2023-03-29T12:57:00.439Z,21.86
2023-03-29T12:59:37.215Z,21.84
2023-03-29T13:02:33.283Z,21.72
2023-03-29T13:05:04.917Z,22.26
2023-03-29T13:07:45.939Z,22.01
2023-03-29T13:10:41.322Z,22.25
2023-03-29T13:13:14.782Z,22.40
2023-03-29T13:15:43.529Z,22.22
2023-03-29T13:18:49.035Z,22.14
2023-03-29T13:21:27.683Z,22.55
2023-03-29T13:24:14.237Z,22.86
2023-03-29T13:26:50.793Z,22.78
2023-03-29T13:29:35.745Z,22.78
2023-03-29T13:32:20.744Z,22.71
2023-03-29T13:34:57.053Z,22.88
2023-03-29T13:38:01.251Z,23.07
2023-03-29T13:40:30.985Z,23.24
2023-03-29T13:43:00.907Z,23.39
2023-03-29T13:45:32.619Z,23.28
2023-03-29T13:48:22.488Z,23.27
2023-03-29T13:51:08.285Z,23.19
2023-03-29T13:53:52.086Z,22.92
2023-03-29T13:56:25.183Z,22.92
2023-03-29T13:58:58.136Z,22.85
2023-03-29T14:01:32.228Z,22.98
2023-03-29T14:03:59.343Z,22.72
2023-03-29T14:06:30.017Z,22.65
2023-03-29T14:08:57.903Z,22.72
2023-03-29T14:11:26.751Z,22.56
2023-03-29T14:13:55.564Z,22.55
2023-03-29T14:16:22.853Z,22.62
2023-03-29T14:18:51.439Z,22.62
2023-03-29T14:21:20.053Z,22.57
2023-03-29T14:23:54.100Z,23.05
2023-03-29T14:26:23.377Z,23.03
2023-03-29T14:28:52.301Z,22.95
2023-03-29T14:31:21.963Z,23.03
2023-03-29T14:33:53.513Z,23.06
2023-03-29T14:36:21.288Z,23.21
2023-03-29T14:38:53.480Z,23.31
2023-03-29T14:41:22.032Z,23.39
2023-03-29T14:43:51.577Z,23.47
2023-03-29T14:46:21.582Z,23.82
2023-03-29T14:48:48.583Z,23.77
2023-03-29T14:51:15.623Z,23.93
2023-03-29T14:53:42.721Z,23.83
2023-03-29T14:56:14.025Z,23.80
2023-03-29T14:58:46.727Z,23.88
2023-03-29T15:01:18.158Z,23.92
2023-03-29T15:03:50.535Z,24.18
2023-03-29T15:06:17.081Z,24.11
2023-03-29T15:08:57.646Z,24.17
2023-03-29T15:11:32.108Z,23.95
2023-03-29T15:14:04.510Z,23.99
2023-03-29T15:16:31.796Z,23.88
2023-03-29T15:19:01.570Z,24.16
2023-03-29T15:21:34.638Z,24.28
2023-03-29T15:24:04.064Z,24.33
2023-03-29T15:26:36.198Z,24.06
2023-03-29T15:29:17.161Z,24.13
2023-03-29T15:31:55.025Z,24.10
2023-03-29T15:34:32.263Z,23.92
2023-03-29T15:36:59.457Z,24.39
2023-03-29T15:39:27.840Z,24.45
2023-03-29T15:41:56.940Z,24.35
2023-03-29T15:44:29.062Z,24.38
2023-03-29T15:46:57.999Z,24.52
2023-03-29T15:49:25.124Z,24.14
2023-03-29T15:51:54.048Z,23.72
2023-03-29T15:54:21.895Z,23.80
2023-03-29T15:56:55.406Z,23.57
2023-03-29T15:59:22.920Z,23.86
2023-03-29T16:01:49.626Z,23.88
2023-03-29T16:04:18.548Z,24.13
2023-03-29T16:06:48.738Z,24.03
2023-03-29T16:09:16.749Z,24.00
2023-03-29T16:11:44.773Z,24.03
2023-03-29T16:14:31.811Z,23.77
2023-03-29T16:17:01.626Z,24.38
2023-03-29T16:19:29.927Z,24.43
2023-03-29T16:21:57.155Z,24.48
2023-03-29T16:24:27.267Z,24.42
2023-03-29T16:26:56.036Z,24.05
2023-03-29T16:29:23.432Z,23.86
2023-03-29T16:31:50.481Z,23.57
2023-03-29T16:34:18.855Z,23.41
2023-03-29T16:36:49.561Z,23.46
2023-03-29T16:39:17.373Z,23.58
2023-03-29T16:41:46.882Z,23.53
2023-03-29T16:44:16.966Z,23.32
2023-03-29T16:46:43.931Z,23.28
2023-03-29T16:49:18.237Z,22.61
2023-03-29T16:51:46.888Z,22.56
2023-03-29T16:54:14.140Z,22.68
2023-03-29T16:56:40.908Z,22.67
2023-03-29T16:59:07.662Z,22.66
2023-03-29T17:01:34.366Z,22.44
2023-03-29T17:04:01.125Z,22.54
2023-03-29T17:06:27.952Z,22.53
2023-03-29T17:08:54.447Z,22.89
2023-03-29T17:11:23.388Z,22.64
2023-03-29T17:13:50.453Z,22.63
2023-03-29T17:16:17.870Z,22.82
2023-03-29T17:18:44.513Z,22.71
2023-03-29T17:21:11.102Z,22.93
2023-03-29T17:23:37.589Z,22.80
2023-03-29T17:26:05.353Z,22.38
2023-03-29T17:28:32.139Z,22.30
2023-03-29T17:30:58.718Z,22.13
2023-03-29T17:33:26.481Z,22.25
2023-03-29T17:35:53.256Z,21.85
2023-03-29T17:38:20.079Z,21.67
2023-03-29T17:40:55.874Z,21.72
2023-03-29T17:43:22.955Z,21.53
2023-03-29T17:45:52.943Z,21.36
2023-03-29T17:48:19.844Z,21.34
2023-03-29T17:50:46.635Z,21.27
2023-03-29T17:53:13.450Z,21.37
2023-03-29T17:55:41.231Z,21.17
2023-03-29T17:58:08.352Z,21.06
2023-03-29T18:00:35.129Z,20.96
2023-03-29T18:03:01.995Z,20.96
2023-03-29T18:05:28.789Z,20.83
2023-03-29T18:07:55.424Z,20.93
2023-03-29T18:10:22.367Z,20.75
2023-03-29T18:12:48.946Z,20.55
2023-03-29T18:15:15.642Z,20.62
2023-03-29T18:17:42.353Z,20.59
2023-03-29T18:20:11.862Z,20.44
2023-03-29T18:22:39.718Z,20.54
2023-03-29T18:25:07.560Z,20.61
2023-03-29T18:27:34.149Z,20.50
2023-03-29T18:30:00.654Z,20.68
2023-03-29T18:32:27.773Z,20.58
2023-03-29T18:34:54.341Z,20.47
2023-03-29T18:37:21.006Z,20.22
2023-03-29T18:39:48.271Z,20.58
2023-03-29T18:42:14.925Z,20.26
2023-03-29T18:44:42.256Z,20.18
2023-03-29T18:47:09.187Z,20.16
2023-03-29T18:49:36.705Z,20.36
2023-03-29T18:52:04.728Z,20.34
2023-03-29T18:54:31.518Z,20.43
2023-03-29T18:56:59.300Z,20.11
2023-03-29T18:59:26.132Z,19.98
2023-03-29T19:01:53.048Z,20.01
2023-03-29T19:04:20.084Z,20.19
2023-03-29T19:06:47.519Z,20.05
2023-03-29T19:09:14.429Z,20.08
2023-03-29T19:11:41.231Z,20.01
2023-03-29T19:14:09.334Z,20.03
2023-03-29T19:16:36.392Z,19.92
2023-03-29T19:19:04.984Z,19.80
2023-03-29T19:21:32.367Z,19.92
2023-03-29T19:24:00.876Z,19.76
2023-03-29T19:26:29.494Z,19.68
2023-03-29T19:28:56.325Z,19.90
2023-03-29T19:31:23.155Z,20.10
2023-03-29T19:33:49.657Z,20.02
2023-03-29T19:36:16.534Z,19.84
2023-03-29T19:38:43.217Z,19.73
2023-03-29T19:41:09.775Z,19.72
2023-03-29T19:43:36.677Z,19.67
2023-03-29T19:46:08.659Z,19.44
2023-03-29T19:48:35.316Z,19.51
2023-03-29T19:51:02.953Z,19.59
2023-03-29T19:53:30.826Z,19.48
2023-03-29T19:55:57.599Z,19.43
2023-03-29T19:58:24.432Z,19.35
2023-03-29T20:00:51.193Z,19.41
2023-03-29T20:03:17.893Z,19.43
2023-03-29T20:05:46.342Z,19.44
2023-03-29T20:08:12.951Z,19.57
2023-03-29T20:10:39.546Z,19.50
2023-03-29T20:13:06.852Z,19.48
2023-03-29T20:15:34.066Z,19.51
2023-03-29T20:18:01.055Z,19.38
2023-03-29T20:20:28.441Z,19.41
2023-03-29T20:22:58.525Z,19.87
2023-03-29T20:25:25.865Z,19.67
2023-03-29T20:27:53.189Z,19.58
2023-03-29T20:30:20.185Z,19.60
2023-03-29T20:32:46.803Z,19.38
2023-03-29T20:35:13.618Z,19.45
2023-03-29T20:37:40.396Z,19.58
2023-03-29T20:40:08.261Z,19.41
2023-03-29T20:42:36.708Z,19.29
2023-03-29T20:45:04.450Z,19.37
2023-03-29T20:47:31.272Z,19.25
2023-03-29T20:49:57.979Z,19.22
2023-03-29T20:52:24.822Z,19.28
2023-03-29T20:54:51.374Z,19.26
2023-03-29T20:57:20.869Z,19.15
2023-03-29T20:59:49.276Z,19.13
2023-03-29T21:02:25.083Z,19.02
2023-03-29T21:04:53.008Z,18.96
2023-03-29T21:07:20.352Z,19.00
2023-03-29T21:09:50.436Z,19.00
2023-03-29T21:12:17.417Z,19.00
2023-03-29T21:14:44.700Z,19.14
2023-03-29T21:17:11.289Z,19.14
2023-03-29T21:19:39.204Z,19.11
2023-03-29T21:22:06.063Z,19.29
2023-03-29T21:24:33.170Z,19.13
2023-03-29T21:27:00.672Z,18.94
2023-03-29T21:29:27.343Z,18.82
2023-03-29T21:31:54.176Z,18.81
2023-03-29T21:34:20.874Z,18.82
2023-03-29T21:36:47.468Z,18.95
2023-03-29T21:39:14.175Z,18.98
2023-03-29T21:41:40.831Z,18.70
2023-03-29T21:44:07.332Z,18.77
2023-03-29T21:46:34.039Z,18.73
2023-03-29T21:49:00.865Z,19.01
2023-03-29T21:51:27.363Z,19.02
2023-03-29T21:53:53.946Z,18.75
2023-03-29T21:56:20.594Z,18.96
2023-03-29T21:58:47.086Z,18.95
2023-03-29T22:01:13.625Z,18.86
2023-03-29T22:03:40.244Z,19.00
2023-03-29T22:06:09.449Z,18.95
2023-03-29T22:08:38.851Z,18.84
2023-03-29T22:11:11.197Z,18.71
2023-03-29T22:13:37.844Z,18.57
2023-03-29T22:16:05.549Z,18.49
2023-03-29T22:18:42.591Z,18.73
2023-03-29T22:21:14.544Z,18.63
2023-03-29T22:23:46.507Z,18.75
2023-03-29T22:26:14.655Z,18.85
2023-03-29T22:28:41.784Z,18.93
2023-03-29T22:31:16.571Z,18.50
2023-03-29T22:33:43.711Z,18.49
2023-03-29T22:36:27.892Z,18.65
2023-03-29T22:38:55.161Z,18.63
2023-03-29T22:41:23.784Z,18.99
2023-03-29T22:43:55.450Z,18.86
2023-03-29T22:46:22.105Z,18.94
2023-03-29T22:48:48.838Z,19.08
2023-03-29T22:51:16.349Z,18.79
2023-03-29T22:53:43.220Z,18.62
2023-03-29T22:56:09.741Z,18.57
2023-03-29T22:58:37.681Z,18.55
2023-03-29T23:01:05.645Z,18.51
2023-03-29T23:03:32.872Z,18.19
2023-03-29T23:06:03.535Z,18.15
2023-03-29T23:08:32.197Z,18.24
2023-03-29T23:10:59.441Z,18.13
2023-03-29T23:13:29.001Z,18.38
2023-03-29T23:16:00.493Z,18.23
2023-03-29T23:18:29.594Z,18.24
2023-03-29T23:20:58.280Z,18.30
2023-03-29T23:23:26.899Z,18.47
2023-03-29T23:25:55.586Z,18.29
2023-03-29T23:28:26.029Z,18.42
2023-03-29T23:31:13.884Z,18.63
2023-03-29T23:33:42.787Z,18.26
2023-03-29T23:36:12.882Z,18.36
2023-03-29T23:38:40.859Z,18.33
2023-03-29T23:41:10.883Z,18.42
2023-03-29T23:43:40.580Z,18.67
2023-03-29T23:46:12.406Z,18.35
2023-03-29T23:48:39.264Z,18.45
2023-03-29T23:51:07.959Z,18.11
2023-03-29T23:53:34.803Z,17.88
2023-03-29T23:56:03.169Z,17.81
2023-03-29T23:58:32.645Z,18.00
